Terminal Aerodrome Forecast
Issued by NWS

Home | Current Version | Previous Version | Text Only | Print | Product List | Glossary On
Versions: 1 2 3 4 5 6 7 8 9 10 11 12
531
FTUS41 KBTV 072035 AAA
TAFRUT
TAF AMD
KRUT 072035Z 0721/0818 VRB03KT P6SM SKC
     FM080000 10006KT P6SM SKC
     FM080500 10010G17KT P6SM BKN040
     FM081300 11009KT P6SM SCT040 BKN080
      AMD LTD TO CLD VIS AND WIND=

USA.gov is the U.S. government's official web portal to all federal, state and local government web resources and services.